sensor_id;sensor_type;location;lat;lon;timestamp;temperature;humidity
56103;DHT22;41970;48.774;9.280;2023-11-19T00:02:09;8.30;99.90
56103;DHT22;41970;48.774;9.280;2023-11-19T00:04:38;8.30;99.90
56103;DHT22;41970;48.774;9.280;2023-11-19T00:07:07;8.50;99.90
56103;DHT22;41970;48.774;9.280;2023-11-19T00:09:33;8.60;99.90
56103;DHT22;41970;48.774;9.280;2023-11-19T00:12:02;8.50;99.90
56103;DHT22;41970;48.774;9.280;2023-11-19T00:14:28;8.60;99.90
56103;DHT22;41970;48.774;9.280;2023-11-19T00:16:54;8.70;99.90
56103;DHT22;41970;48.774;9.280;2023-11-19T00:19:20;8.70;99.90
56103;DHT22;41970;48.774;9.280;2023-11-19T00:21:46;8.70;99.90
56103;DHT22;41970;48.774;9.280;2023-11-19T00:24:12;8.60;99.90
56103;DHT22;41970;48.774;9.280;2023-11-19T00:26:38;8.50;99.90
56103;DHT22;41970;48.774;9.280;2023-11-19T00:29:04;8.50;99.90
56103;DHT22;41970;48.774;9.280;2023-11-19T00:31:32;8.50;99.90
56103;DHT22;41970;48.774;9.280;2023-11-19T00:33:57;8.50;99.90
56103;DHT22;41970;48.774;9.280;2023-11-19T00:36:23;8.60;99.90
56103;DHT22;41970;48.774;9.280;2023-11-19T00:38:49;8.60;99.90
56103;DHT22;41970;48.774;9.280;2023-11-19T00:41:16;8.60;99.90
56103;DHT22;41970;48.774;9.280;2023-11-19T00:43:44;8.60;99.90
56103;DHT22;41970;48.774;9.280;2023-11-19T00:46:10;8.60;99.90
56103;DHT22;41970;48.774;9.280;2023-11-19T00:48:39;8.60;99.90
56103;DHT22;41970;48.774;9.280;2023-11-19T00:51:06;8.60;99.90
56103;DHT22;41970;48.774;9.280;2023-11-19T00:53:32;8.60;99.90
56103;DHT22;41970;48.774;9.280;2023-11-19T00:55:59;8.60;99.90
56103;DHT22;41970;48.774;9.280;2023-11-19T00:58:25;8.70;99.90
56103;DHT22;41970;48.774;9.280;2023-11-19T01:00:51;8.80;99.90
56103;DHT22;41970;48.774;9.280;2023-11-19T01:03:17;8.80;99.90
56103;DHT22;41970;48.774;9.280;2023-11-19T01:05:43;9.00;99.90
56103;DHT22;41970;48.774;9.280;2023-11-19T01:08:10;8.90;99.90
56103;DHT22;41970;48.774;9.280;2023-11-19T01:10:38;8.90;99.90
56103;DHT22;41970;48.774;9.280;2023-11-19T01:13:04;8.80;99.90
56103;DHT22;41970;48.774;9.280;2023-11-19T01:15:33;8.80;99.90
56103;DHT22;41970;48.774;9.280;2023-11-19T01:17:59;8.80;99.90
56103;DHT22;41970;48.774;9.280;2023-11-19T01:20:24;8.90;99.90
56103;DHT22;41970;48.774;9.280;2023-11-19T01:22:52;9.00;99.90
56103;DHT22;41970;48.774;9.280;2023-11-19T01:25:17;9.00;99.90
56103;DHT22;41970;48.774;9.280;2023-11-19T01:27:43;9.10;99.90
56103;DHT22;41970;48.774;9.280;2023-11-19T01:30:09;9.20;99.90
56103;DHT22;41970;48.774;9.280;2023-11-19T01:32:38;9.30;99.90
56103;DHT22;41970;48.774;9.280;2023-11-19T01:35:04;9.40;99.90
56103;DHT22;41970;48.774;9.280;2023-11-19T01:37:30;9.40;99.90
56103;DHT22;41970;48.774;9.280;2023-11-19T01:39:57;9.30;99.90
56103;DHT22;41970;48.774;9.280;2023-11-19T01:42:23;9.30;99.90
56103;DHT22;41970;48.774;9.280;2023-11-19T01:45:00;9.40;99.90
56103;DHT22;41970;48.774;9.280;2023-11-19T01:47:30;9.50;99.90
56103;DHT22;41970;48.774;9.280;2023-11-19T01:49:56;9.70;99.90
56103;DHT22;41970;48.774;9.280;2023-11-19T01:52:23;9.80;99.90
56103;DHT22;41970;48.774;9.280;2023-11-19T01:54:52;9.90;99.90
56103;DHT22;41970;48.774;9.280;2023-11-19T01:57:21;10.00;99.90
56103;DHT22;41970;48.774;9.280;2023-11-19T01:59:50;10.00;99.90
56103;DHT22;41970;48.774;9.280;2023-11-19T02:02:16;10.00;99.90
56103;DHT22;41970;48.774;9.280;2023-11-19T02:04:49;10.10;99.90
56103;DHT22;41970;48.774;9.280;2023-11-19T02:07:15;10.00;99.90
56103;DHT22;41970;48.774;9.280;2023-11-19T02:09:43;10.00;99.90
56103;DHT22;41970;48.774;9.280;2023-11-19T02:12:10;10.10;99.90
56103;DHT22;41970;48.774;9.280;2023-11-19T02:14:37;10.20;99.90
56103;DHT22;41970;48.774;9.280;2023-11-19T02:17:03;10.20;99.90
56103;DHT22;41970;48.774;9.280;2023-11-19T02:19:29;10.30;99.90
56103;DHT22;41970;48.774;9.280;2023-11-19T02:21:55;10.40;99.90
56103;DHT22;41970;48.774;9.280;2023-11-19T02:24:22;10.40;99.90
56103;DHT22;41970;48.774;9.280;2023-11-19T02:26:58;10.50;99.90
56103;DHT22;41970;48.774;9.280;2023-11-19T02:29:25;10.50;99.90
56103;DHT22;41970;48.774;9.280;2023-11-19T02:31:51;10.60;99.90
56103;DHT22;41970;48.774;9.280;2023-11-19T02:34:17;10.60;99.90
56103;DHT22;41970;48.774;9.280;2023-11-19T02:36:42;10.60;99.90
56103;DHT22;41970;48.774;9.280;2023-11-19T02:39:08;10.70;99.90
56103;DHT22;41970;48.774;9.280;2023-11-19T02:41:37;10.70;99.90
56103;DHT22;41970;48.774;9.280;2023-11-19T02:44:08;10.70;99.90
56103;DHT22;41970;48.774;9.280;2023-11-19T02:46:34;10.70;99.90
56103;DHT22;41970;48.774;9.280;2023-11-19T02:49:00;10.70;99.90
56103;DHT22;41970;48.774;9.280;2023-11-19T02:51:25;10.70;99.90
56103;DHT22;41970;48.774;9.280;2023-11-19T02:53:53;10.70;99.90
56103;DHT22;41970;48.774;9.280;2023-11-19T02:56:18;10.70;99.90
56103;DHT22;41970;48.774;9.280;2023-11-19T02:58:55;10.70;99.90
56103;DHT22;41970;48.774;9.280;2023-11-19T03:01:24;10.80;99.90
56103;DHT22;41970;48.774;9.280;2023-11-19T03:04:01;10.80;99.90
56103;DHT22;41970;48.774;9.280;2023-11-19T03:06:27;10.80;99.90
56103;DHT22;41970;48.774;9.280;2023-11-19T03:08:54;10.80;99.90
56103;DHT22;41970;48.774;9.280;2023-11-19T03:11:20;10.60;99.90
56103;DHT22;41970;48.774;9.280;2023-11-19T03:13:46;10.70;99.90
56103;DHT22;41970;48.774;9.280;2023-11-19T03:16:12;10.70;99.90
56103;DHT22;41970;48.774;9.280;2023-11-19T03:18:39;10.80;99.90
56103;DHT22;41970;48.774;9.280;2023-11-19T03:21:08;10.80;99.90
56103;DHT22;41970;48.774;9.280;2023-11-19T03:23:34;10.80;99.90
56103;DHT22;41970;48.774;9.280;2023-11-19T03:26:00;10.90;99.90
56103;DHT22;41970;48.774;9.280;2023-11-19T03:28:29;10.90;99.90
56103;DHT22;41970;48.774;9.280;2023-11-19T03:30:56;10.90;99.90
56103;DHT22;41970;48.774;9.280;2023-11-19T03:33:22;10.80;99.90
56103;DHT22;41970;48.774;9.280;2023-11-19T03:35:47;10.90;99.90
56103;DHT22;41970;48.774;9.280;2023-11-19T03:38:13;10.90;99.90
56103;DHT22;41970;48.774;9.280;2023-11-19T03:40:40;10.90;99.90
56103;DHT22;41970;48.774;9.280;2023-11-19T03:43:06;10.80;99.90
56103;DHT22;41970;48.774;9.280;2023-11-19T03:45:32;10.70;99.90
56103;DHT22;41970;48.774;9.280;2023-11-19T03:47:57;10.50;99.90
56103;DHT22;41970;48.774;9.280;2023-11-19T03:50:23;10.60;99.90
56103;DHT22;41970;48.774;9.280;2023-11-19T03:52:49;10.70;99.90
56103;DHT22;41970;48.774;9.280;2023-11-19T03:55:15;10.80;99.90
56103;DHT22;41970;48.774;9.280;2023-11-19T03:57:41;10.90;99.90
56103;DHT22;41970;48.774;9.280;2023-11-19T04:00:07;10.90;99.90
56103;DHT22;41970;48.774;9.280;2023-11-19T04:02:37;10.90;99.90
56103;DHT22;41970;48.774;9.280;2023-11-19T04:05:03;10.70;99.90
56103;DHT22;41970;48.774;9.280;2023-11-19T04:07:30;10.70;99.90
56103;DHT22;41970;48.774;9.280;2023-11-19T04:09:57;10.70;99.90
56103;DHT22;41970;48.774;9.280;2023-11-19T04:12:23;10.70;99.90
56103;DHT22;41970;48.774;9.280;2023-11-19T04:14:49;10.60;99.90
56103;DHT22;41970;48.774;9.280;2023-11-19T04:17:14;10.60;99.90
56103;DHT22;41970;48.774;9.280;2023-11-19T04:19:40;10.60;99.90
56103;DHT22;41970;48.774;9.280;2023-11-19T04:22:09;10.60;99.90
56103;DHT22;41970;48.774;9.280;2023-11-19T04:24:36;10.50;99.90
56103;DHT22;41970;48.774;9.280;2023-11-19T04:27:02;10.50;99.90
56103;DHT22;41970;48.774;9.280;2023-11-19T04:29:30;10.70;99.90
56103;DHT22;41970;48.774;9.280;2023-11-19T04:31:56;10.70;99.90
56103;DHT22;41970;48.774;9.280;2023-11-19T04:34:22;10.80;99.90
56103;DHT22;41970;48.774;9.280;2023-11-19T04:36:48;10.90;99.90
56103;DHT22;41970;48.774;9.280;2023-11-19T04:39:14;11.00;99.90
56103;DHT22;41970;48.774;9.280;2023-11-19T04:44:14;10.90;99.90
56103;DHT22;41970;48.774;9.280;2023-11-19T04:46:41;10.90;99.90
56103;DHT22;41970;48.774;9.280;2023-11-19T04:49:09;10.80;99.90
56103;DHT22;41970;48.774;9.280;2023-11-19T04:51:40;10.70;99.90
56103;DHT22;41970;48.774;9.280;2023-11-19T04:54:06;10.70;99.90
56103;DHT22;41970;48.774;9.280;2023-11-19T04:56:34;10.70;99.90
56103;DHT22;41970;48.774;9.280;2023-11-19T04:59:01;10.60;99.90
56103;DHT22;41970;48.774;9.280;2023-11-19T05:01:27;10.70;99.90
56103;DHT22;41970;48.774;9.280;2023-11-19T05:03:53;10.70;99.90
56103;DHT22;41970;48.774;9.280;2023-11-19T05:06:19;10.80;99.90
56103;DHT22;41970;48.774;9.280;2023-11-19T05:08:45;10.70;99.90
56103;DHT22;41970;48.774;9.280;2023-11-19T05:11:11;10.90;99.90
56103;DHT22;41970;48.774;9.280;2023-11-19T05:13:43;10.80;99.90
56103;DHT22;41970;48.774;9.280;2023-11-19T05:16:11;10.90;99.90
56103;DHT22;41970;48.774;9.280;2023-11-19T05:18:40;11.00;99.90
56103;DHT22;41970;48.774;9.280;2023-11-19T05:21:06;11.10;99.90
56103;DHT22;41970;48.774;9.280;2023-11-19T05:23:32;11.20;99.90
56103;DHT22;41970;48.774;9.280;2023-11-19T05:26:02;11.30;99.90
56103;DHT22;41970;48.774;9.280;2023-11-19T05:28:28;11.30;99.90
56103;DHT22;41970;48.774;9.280;2023-11-19T05:30:54;11.20;99.90
56103;DHT22;41970;48.774;9.280;2023-11-19T05:33:21;11.30;99.90
56103;DHT22;41970;48.774;9.280;2023-11-19T05:35:47;11.30;99.90
56103;DHT22;41970;48.774;9.280;2023-11-19T05:38:12;11.20;99.90
56103;DHT22;41970;48.774;9.280;2023-11-19T05:40:38;11.30;99.90
56103;DHT22;41970;48.774;9.280;2023-11-19T05:43:04;11.40;99.90
56103;DHT22;41970;48.774;9.280;2023-11-19T05:45:31;11.40;99.90
56103;DHT22;41970;48.774;9.280;2023-11-19T05:47:57;11.40;99.90
56103;DHT22;41970;48.774;9.280;2023-11-19T05:50:23;11.50;99.90
56103;DHT22;41970;48.774;9.280;2023-11-19T05:52:49;11.50;99.90
56103;DHT22;41970;48.774;9.280;2023-11-19T05:55:15;11.60;99.90
56103;DHT22;41970;48.774;9.280;2023-11-19T05:57:41;11.50;99.90
56103;DHT22;41970;48.774;9.280;2023-11-19T06:00:08;11.50;99.90
56103;DHT22;41970;48.774;9.280;2023-11-19T06:02:34;11.40;99.90
56103;DHT22;41970;48.774;9.280;2023-11-19T06:05:00;11.50;99.90
56103;DHT22;41970;48.774;9.280;2023-11-19T06:07:27;11.50;99.90
56103;DHT22;41970;48.774;9.280;2023-11-19T06:09:53;11.30;99.90
56103;DHT22;41970;48.774;9.280;2023-11-19T06:12:19;11.40;99.90
56103;DHT22;41970;48.774;9.280;2023-11-19T06:14:44;11.40;99.90
56103;DHT22;41970;48.774;9.280;2023-11-19T06:17:10;11.40;99.90
56103;DHT22;41970;48.774;9.280;2023-11-19T06:19:37;11.50;99.90
56103;DHT22;41970;48.774;9.280;2023-11-19T06:22:03;11.40;99.90
56103;DHT22;41970;48.774;9.280;2023-11-19T06:24:29;11.40;99.90
56103;DHT22;41970;48.774;9.280;2023-11-19T06:26:55;11.50;99.90
56103;DHT22;41970;48.774;9.280;2023-11-19T06:29:20;11.40;99.90
56103;DHT22;41970;48.774;9.280;2023-11-19T06:31:46;11.50;99.90
56103;DHT22;41970;48.774;9.280;2023-11-19T06:34:14;11.60;99.90
56103;DHT22;41970;48.774;9.280;2023-11-19T06:36:40;11.70;99.90
56103;DHT22;41970;48.774;9.280;2023-11-19T06:39:06;11.80;99.90
56103;DHT22;41970;48.774;9.280;2023-11-19T06:41:31;11.90;99.90
56103;DHT22;41970;48.774;9.280;2023-11-19T06:43:57;11.80;99.90
56103;DHT22;41970;48.774;9.280;2023-11-19T06:46:23;11.80;99.90
56103;DHT22;41970;48.774;9.280;2023-11-19T06:48:49;11.80;99.90
56103;DHT22;41970;48.774;9.280;2023-11-19T06:51:15;11.70;99.90
56103;DHT22;41970;48.774;9.280;2023-11-19T06:53:42;11.60;99.90
56103;DHT22;41970;48.774;9.280;2023-11-19T06:56:22;11.60;99.90
56103;DHT22;41970;48.774;9.280;2023-11-19T06:58:49;11.70;99.90
56103;DHT22;41970;48.774;9.280;2023-11-19T07:01:16;11.80;99.90
56103;DHT22;41970;48.774;9.280;2023-11-19T07:03:42;11.90;99.90
56103;DHT22;41970;48.774;9.280;2023-11-19T07:06:07;11.90;99.90
56103;DHT22;41970;48.774;9.280;2023-11-19T07:08:34;12.00;99.90
56103;DHT22;41970;48.774;9.280;2023-11-19T07:10:59;12.00;99.90
56103;DHT22;41970;48.774;9.280;2023-11-19T07:13:25;12.00;99.90
56103;DHT22;41970;48.774;9.280;2023-11-19T07:15:53;12.00;99.90
56103;DHT22;41970;48.774;9.280;2023-11-19T07:18:20;12.00;99.90
56103;DHT22;41970;48.774;9.280;2023-11-19T07:20:48;12.10;99.90
56103;DHT22;41970;48.774;9.280;2023-11-19T07:23:14;11.90;99.90
56103;DHT22;41970;48.774;9.280;2023-11-19T07:25:42;11.90;99.90
56103;DHT22;41970;48.774;9.280;2023-11-19T07:28:08;11.80;99.90
56103;DHT22;41970;48.774;9.280;2023-11-19T07:30:35;11.80;99.90
56103;DHT22;41970;48.774;9.280;2023-11-19T07:33:01;11.90;99.90
56103;DHT22;41970;48.774;9.280;2023-11-19T07:35:29;11.80;99.90
56103;DHT22;41970;48.774;9.280;2023-11-19T07:37:56;11.70;99.90
56103;DHT22;41970;48.774;9.280;2023-11-19T07:40:23;11.80;99.90
56103;DHT22;41970;48.774;9.280;2023-11-19T07:42:49;11.80;99.90
56103;DHT22;41970;48.774;9.280;2023-11-19T07:45:15;11.80;99.90
56103;DHT22;41970;48.774;9.280;2023-11-19T07:47:42;11.90;99.90
56103;DHT22;41970;48.774;9.280;2023-11-19T07:50:10;11.70;99.90
56103;DHT22;41970;48.774;9.280;2023-11-19T07:52:39;11.60;99.90
56103;DHT22;41970;48.774;9.280;2023-11-19T07:55:05;11.60;99.90
56103;DHT22;41970;48.774;9.280;2023-11-19T07:57:31;11.50;99.90
56103;DHT22;41970;48.774;9.280;2023-11-19T07:59:59;11.50;99.90
56103;DHT22;41970;48.774;9.280;2023-11-19T08:02:27;11.70;99.90
56103;DHT22;41970;48.774;9.280;2023-11-19T08:04:52;11.80;99.90
56103;DHT22;41970;48.774;9.280;2023-11-19T08:07:20;11.90;99.90
56103;DHT22;41970;48.774;9.280;2023-11-19T08:09:46;11.80;99.90
56103;DHT22;41970;48.774;9.280;2023-11-19T08:12:12;12.00;99.90
56103;DHT22;41970;48.774;9.280;2023-11-19T08:14:40;12.10;99.90
56103;DHT22;41970;48.774;9.280;2023-11-19T08:17:05;12.10;99.90
56103;DHT22;41970;48.774;9.280;2023-11-19T08:19:32;12.10;99.90
56103;DHT22;41970;48.774;9.280;2023-11-19T08:21:57;12.20;99.90
56103;DHT22;41970;48.774;9.280;2023-11-19T08:24:23;12.00;99.90
56103;DHT22;41970;48.774;9.280;2023-11-19T08:26:49;11.90;99.90
56103;DHT22;41970;48.774;9.280;2023-11-19T08:29:15;11.90;99.90
56103;DHT22;41970;48.774;9.280;2023-11-19T08:31:41;12.00;99.90
56103;DHT22;41970;48.774;9.280;2023-11-19T08:34:07;12.00;99.90
56103;DHT22;41970;48.774;9.280;2023-11-19T08:36:35;12.10;99.90
56103;DHT22;41970;48.774;9.280;2023-11-19T08:39:01;12.20;99.90
56103;DHT22;41970;48.774;9.280;2023-11-19T08:41:27;12.30;99.90
56103;DHT22;41970;48.774;9.280;2023-11-19T08:43:53;12.40;99.90
56103;DHT22;41970;48.774;9.280;2023-11-19T08:46:18;12.50;99.90
56103;DHT22;41970;48.774;9.280;2023-11-19T08:48:44;13.10;99.90
56103;DHT22;41970;48.774;9.280;2023-11-19T08:51:12;13.70;99.90
56103;DHT22;41970;48.774;9.280;2023-11-19T08:53:37;13.90;99.90
56103;DHT22;41970;48.774;9.280;2023-11-19T08:56:03;13.80;99.90
56103;DHT22;41970;48.774;9.280;2023-11-19T08:58:29;13.80;99.90
56103;DHT22;41970;48.774;9.280;2023-11-19T09:00:56;13.80;99.90
56103;DHT22;41970;48.774;9.280;2023-11-19T09:03:22;13.80;99.90
56103;DHT22;41970;48.774;9.280;2023-11-19T09:05:47;13.70;99.90
56103;DHT22;41970;48.774;9.280;2023-11-19T09:08:13;13.60;99.90
56103;DHT22;41970;48.774;9.280;2023-11-19T09:10:39;13.60;99.90
56103;DHT22;41970;48.774;9.280;2023-11-19T09:13:04;13.60;99.90
56103;DHT22;41970;48.774;9.280;2023-11-19T09:15:30;13.50;99.90
56103;DHT22;41970;48.774;9.280;2023-11-19T09:17:56;13.60;99.90
56103;DHT22;41970;48.774;9.280;2023-11-19T09:20:21;13.60;99.90
56103;DHT22;41970;48.774;9.280;2023-11-19T09:22:47;13.70;99.90
56103;DHT22;41970;48.774;9.280;2023-11-19T09:25:13;13.80;99.90
56103;DHT22;41970;48.774;9.280;2023-11-19T09:27:43;13.80;99.90
56103;DHT22;41970;48.774;9.280;2023-11-19T09:30:09;13.80;99.90
56103;DHT22;41970;48.774;9.280;2023-11-19T09:32:35;13.80;99.90
56103;DHT22;41970;48.774;9.280;2023-11-19T09:35:03;13.70;99.90
56103;DHT22;41970;48.774;9.280;2023-11-19T09:37:29;13.80;99.90
56103;DHT22;41970;48.774;9.280;2023-11-19T09:39:54;13.60;99.90
56103;DHT22;41970;48.774;9.280;2023-11-19T09:42:20;13.70;99.90
56103;DHT22;41970;48.774;9.280;2023-11-19T09:44:47;13.70;99.90
56103;DHT22;41970;48.774;9.280;2023-11-19T09:47:14;13.70;99.90
56103;DHT22;41970;48.774;9.280;2023-11-19T09:49:40;13.70;99.90
56103;DHT22;41970;48.774;9.280;2023-11-19T09:52:07;13.70;99.90
56103;DHT22;41970;48.774;9.280;2023-11-19T09:54:32;13.70;99.90
56103;DHT22;41970;48.774;9.280;2023-11-19T09:56:59;13.80;99.90
56103;DHT22;41970;48.774;9.280;2023-11-19T09:59:32;14.00;99.90
56103;DHT22;41970;48.774;9.280;2023-11-19T10:01:59;14.10;99.90
56103;DHT22;41970;48.774;9.280;2023-11-19T10:04:26;14.10;99.90
56103;DHT22;41970;48.774;9.280;2023-11-19T10:06:55;14.20;99.90
56103;DHT22;41970;48.774;9.280;2023-11-19T10:09:20;14.30;99.90
56103;DHT22;41970;48.774;9.280;2023-11-19T10:11:46;14.40;99.90
56103;DHT22;41970;48.774;9.280;2023-11-19T10:14:12;14.50;99.90
56103;DHT22;41970;48.774;9.280;2023-11-19T10:16:39;14.50;99.90
56103;DHT22;41970;48.774;9.280;2023-11-19T10:19:06;14.60;99.90
56103;DHT22;41970;48.774;9.280;2023-11-19T10:21:33;14.60;99.90
56103;DHT22;41970;48.774;9.280;2023-11-19T10:23:59;14.70;99.90
56103;DHT22;41970;48.774;9.280;2023-11-19T10:26:26;14.70;99.90
56103;DHT22;41970;48.774;9.280;2023-11-19T10:28:52;14.70;99.90
56103;DHT22;41970;48.774;9.280;2023-11-19T10:31:20;14.80;99.90
56103;DHT22;41970;48.774;9.280;2023-11-19T10:33:53;14.80;99.90
56103;DHT22;41970;48.774;9.280;2023-11-19T10:36:19;14.70;99.90
56103;DHT22;41970;48.774;9.280;2023-11-19T10:38:53;14.70;99.90
56103;DHT22;41970;48.774;9.280;2023-11-19T10:41:32;14.80;99.90
56103;DHT22;41970;48.774;9.280;2023-11-19T10:43:58;14.80;99.90
56103;DHT22;41970;48.774;9.280;2023-11-19T10:46:37;14.80;99.90
56103;DHT22;41970;48.774;9.280;2023-11-19T10:49:04;14.80;99.90
56103;DHT22;41970;48.774;9.280;2023-11-19T10:51:29;14.80;99.90
56103;DHT22;41970;48.774;9.280;2023-11-19T10:54:04;14.90;99.90
56103;DHT22;41970;48.774;9.280;2023-11-19T10:56:33;14.90;99.90
56103;DHT22;41970;48.774;9.280;2023-11-19T10:59:00;14.90;99.90
56103;DHT22;41970;48.774;9.280;2023-11-19T11:01:43;14.90;99.90
56103;DHT22;41970;48.774;9.280;2023-11-19T11:04:22;14.90;99.90
56103;DHT22;41970;48.774;9.280;2023-11-19T11:06:48;14.90;99.90
56103;DHT22;41970;48.774;9.280;2023-11-19T11:09:14;15.00;99.90
56103;DHT22;41970;48.774;9.280;2023-11-19T11:11:41;15.00;99.90
56103;DHT22;41970;48.774;9.280;2023-11-19T11:14:12;15.00;99.90
56103;DHT22;41970;48.774;9.280;2023-11-19T11:16:42;14.90;99.90
56103;DHT22;41970;48.774;9.280;2023-11-19T11:19:09;15.00;99.90
56103;DHT22;41970;48.774;9.280;2023-11-19T11:21:37;15.00;99.90
56103;DHT22;41970;48.774;9.280;2023-11-19T11:29:24;14.50;99.90
56103;DHT22;41970;48.774;9.280;2023-11-19T11:37:43;14.60;99.90
56103;DHT22;41970;48.774;9.280;2023-11-19T11:40:15;14.40;99.90
56103;DHT22;41970;48.774;9.280;2023-11-19T11:42:42;14.20;99.90
56103;DHT22;41970;48.774;9.280;2023-11-19T11:45:13;14.10;99.90
56103;DHT22;41970;48.774;9.280;2023-11-19T11:50:12;14.10;99.90
56103;DHT22;41970;48.774;9.280;2023-11-19T11:58:03;14.20;99.90
56103;DHT22;41970;48.774;9.280;2023-11-19T12:00:30;14.40;99.90
56103;DHT22;41970;48.774;9.280;2023-11-19T12:03:00;14.30;99.90
56103;DHT22;41970;48.774;9.280;2023-11-19T12:05:26;14.40;99.90
56103;DHT22;41970;48.774;9.280;2023-11-19T12:08:02;14.50;99.90
56103;DHT22;41970;48.774;9.280;2023-11-19T12:10:36;14.60;99.90
56103;DHT22;41970;48.774;9.280;2023-11-19T12:13:06;14.70;99.90
56103;DHT22;41970;48.774;9.280;2023-11-19T12:15:32;14.80;99.90
56103;DHT22;41970;48.774;9.280;2023-11-19T12:17:58;14.90;99.90
56103;DHT22;41970;48.774;9.280;2023-11-19T12:20:26;15.00;99.90
56103;DHT22;41970;48.774;9.280;2023-11-19T12:22:53;15.10;99.90
56103;DHT22;41970;48.774;9.280;2023-11-19T12:25:19;15.10;99.90
56103;DHT22;41970;48.774;9.280;2023-11-19T12:27:47;15.20;99.90
56103;DHT22;41970;48.774;9.280;2023-11-19T12:30:17;15.20;99.90
56103;DHT22;41970;48.774;9.280;2023-11-19T12:32:46;15.40;99.90
56103;DHT22;41970;48.774;9.280;2023-11-19T12:35:12;15.30;99.90
56103;DHT22;41970;48.774;9.280;2023-11-19T12:37:45;15.30;99.90
56103;DHT22;41970;48.774;9.280;2023-11-19T12:42:38;15.40;99.90
56103;DHT22;41970;48.774;9.280;2023-11-19T12:45:05;15.40;99.90
56103;DHT22;41970;48.774;9.280;2023-11-19T12:47:31;15.40;99.90
56103;DHT22;41970;48.774;9.280;2023-11-19T12:49:57;15.50;99.90
56103;DHT22;41970;48.774;9.280;2023-11-19T12:52:23;15.60;99.90
56103;DHT22;41970;48.774;9.280;2023-11-19T12:54:49;15.60;99.90
56103;DHT22;41970;48.774;9.280;2023-11-19T12:57:15;15.60;99.90
56103;DHT22;41970;48.774;9.280;2023-11-19T12:59:41;15.60;99.90
56103;DHT22;41970;48.774;9.280;2023-11-19T13:02:08;15.40;99.90
56103;DHT22;41970;48.774;9.280;2023-11-19T13:04:34;15.40;99.90
56103;DHT22;41970;48.774;9.280;2023-11-19T13:07:00;15.40;99.90
56103;DHT22;41970;48.774;9.280;2023-11-19T13:09:30;15.50;99.90
56103;DHT22;41970;48.774;9.280;2023-11-19T13:11:56;15.50;99.90
56103;DHT22;41970;48.774;9.280;2023-11-19T13:14:22;15.60;99.90
56103;DHT22;41970;48.774;9.280;2023-11-19T13:16:49;15.60;99.90
56103;DHT22;41970;48.774;9.280;2023-11-19T13:19:15;15.60;99.90
56103;DHT22;41970;48.774;9.280;2023-11-19T13:21:45;15.50;99.90
56103;DHT22;41970;48.774;9.280;2023-11-19T13:24:14;15.50;99.90
56103;DHT22;41970;48.774;9.280;2023-11-19T13:26:40;15.50;99.90
56103;DHT22;41970;48.774;9.280;2023-11-19T13:29:05;15.40;99.90
56103;DHT22;41970;48.774;9.280;2023-11-19T13:31:31;15.30;99.90
56103;DHT22;41970;48.774;9.280;2023-11-19T13:33:58;15.30;99.90
56103;DHT22;41970;48.774;9.280;2023-11-19T13:36:24;15.20;99.90
56103;DHT22;41970;48.774;9.280;2023-11-19T13:38:50;15.20;99.90
56103;DHT22;41970;48.774;9.280;2023-11-19T13:41:16;15.30;99.90
56103;DHT22;41970;48.774;9.280;2023-11-19T13:43:43;15.30;99.90
56103;DHT22;41970;48.774;9.280;2023-11-19T13:46:09;15.30;99.90
56103;DHT22;41970;48.774;9.280;2023-11-19T13:48:38;15.20;99.90
56103;DHT22;41970;48.774;9.280;2023-11-19T13:51:04;15.10;99.90
56103;DHT22;41970;48.774;9.280;2023-11-19T13:53:30;15.10;99.90
56103;DHT22;41970;48.774;9.280;2023-11-19T13:55:56;15.20;99.90
56103;DHT22;41970;48.774;9.280;2023-11-19T13:58:22;15.20;99.90
56103;DHT22;41970;48.774;9.280;2023-11-19T14:00:47;15.20;99.90
56103;DHT22;41970;48.774;9.280;2023-11-19T14:03:13;15.10;99.90
56103;DHT22;41970;48.774;9.280;2023-11-19T14:05:39;15.10;99.90
56103;DHT22;41970;48.774;9.280;2023-11-19T14:08:06;15.10;99.90
56103;DHT22;41970;48.774;9.280;2023-11-19T14:10:39;15.10;99.90
56103;DHT22;41970;48.774;9.280;2023-11-19T14:13:06;15.10;99.90
56103;DHT22;41970;48.774;9.280;2023-11-19T14:15:32;15.10;99.90
56103;DHT22;41970;48.774;9.280;2023-11-19T14:17:58;15.10;99.90
56103;DHT22;41970;48.774;9.280;2023-11-19T14:20:23;15.00;99.90
56103;DHT22;41970;48.774;9.280;2023-11-19T14:22:49;15.00;99.90
56103;DHT22;41970;48.774;9.280;2023-11-19T14:25:17;15.10;99.90
56103;DHT22;41970;48.774;9.280;2023-11-19T14:27:44;15.00;99.90
56103;DHT22;41970;48.774;9.280;2023-11-19T14:30:12;14.90;99.90
56103;DHT22;41970;48.774;9.280;2023-11-19T14:32:40;14.90;99.90
56103;DHT22;41970;48.774;9.280;2023-11-19T14:35:06;14.90;99.90
56103;DHT22;41970;48.774;9.280;2023-11-19T14:37:33;14.80;99.90
56103;DHT22;41970;48.774;9.280;2023-11-19T14:39:59;14.70;99.90
56103;DHT22;41970;48.774;9.280;2023-11-19T14:42:25;14.70;99.90
56103;DHT22;41970;48.774;9.280;2023-11-19T14:44:51;14.80;99.90
56103;DHT22;41970;48.774;9.280;2023-11-19T14:47:21;14.90;99.90
56103;DHT22;41970;48.774;9.280;2023-11-19T14:49:47;14.90;99.90
56103;DHT22;41970;48.774;9.280;2023-11-19T14:52:13;14.90;99.90
56103;DHT22;41970;48.774;9.280;2023-11-19T14:54:39;14.90;99.90
56103;DHT22;41970;48.774;9.280;2023-11-19T14:57:05;14.90;99.90
56103;DHT22;41970;48.774;9.280;2023-11-19T14:59:39;15.00;99.90
56103;DHT22;41970;48.774;9.280;2023-11-19T15:02:05;15.00;99.90
56103;DHT22;41970;48.774;9.280;2023-11-19T15:04:31;14.90;99.90
56103;DHT22;41970;48.774;9.280;2023-11-19T15:06:58;14.80;99.90
56103;DHT22;41970;48.774;9.280;2023-11-19T15:09:24;14.70;99.90
56103;DHT22;41970;48.774;9.280;2023-11-19T15:11:50;14.70;99.90
56103;DHT22;41970;48.774;9.280;2023-11-19T15:14:16;14.60;99.90
56103;DHT22;41970;48.774;9.280;2023-11-19T15:16:45;14.60;99.90
56103;DHT22;41970;48.774;9.280;2023-11-19T15:19:11;14.60;99.90
56103;DHT22;41970;48.774;9.280;2023-11-19T15:21:38;14.60;99.90
56103;DHT22;41970;48.774;9.280;2023-11-19T15:24:04;14.60;99.90
56103;DHT22;41970;48.774;9.280;2023-11-19T15:26:36;14.50;99.90
56103;DHT22;41970;48.774;9.280;2023-11-19T15:29:02;14.50;99.90
56103;DHT22;41970;48.774;9.280;2023-11-19T15:31:29;14.50;99.90
56103;DHT22;41970;48.774;9.280;2023-11-19T15:33:55;14.50;99.90
56103;DHT22;41970;48.774;9.280;2023-11-19T15:36:21;14.40;99.90
56103;DHT22;41970;48.774;9.280;2023-11-19T15:38:47;14.50;99.90
56103;DHT22;41970;48.774;9.280;2023-11-19T15:41:12;14.50;99.90
56103;DHT22;41970;48.774;9.280;2023-11-19T15:43:38;14.50;99.90
56103;DHT22;41970;48.774;9.280;2023-11-19T15:46:10;14.60;99.90
56103;DHT22;41970;48.774;9.280;2023-11-19T15:48:36;14.60;99.90
56103;DHT22;41970;48.774;9.280;2023-11-19T15:51:02;14.60;99.90
56103;DHT22;41970;48.774;9.280;2023-11-19T15:53:32;14.60;99.90
56103;DHT22;41970;48.774;9.280;2023-11-19T15:55:58;14.50;99.90